createdAt,value
2024-04-30T00:00:50.795Z,7.5
2024-04-30T00:15:54.183Z,6.1
2024-04-30T00:30:51.688Z,12
2024-04-30T00:45:56.073Z,6.4
2024-04-30T01:00:52.924Z,6.8
2024-04-30T01:01:27.563Z,5.2
2024-04-30T01:15:54.154Z,7.5
2024-04-30T01:30:56.065Z,7.5
2024-04-30T01:45:56.829Z,8.7
2024-04-30T02:00:57.164Z,5.2
2024-04-30T02:15:58.002Z,5.2
2024-04-30T02:30:58.272Z,8.4
2024-04-30T02:46:00.416Z,7.9
2024-04-30T03:01:00.646Z,10.6
2024-04-30T03:16:01.490Z,12.6
2024-04-30T03:31:01.472Z,6
2024-04-30T03:46:03.670Z,9
2024-04-30T03:56:35.994Z,8
2024-04-30T04:11:37.304Z,10.6
2024-04-30T04:26:42.927Z,11.2
2024-04-30T04:41:38.253Z,8
2024-04-30T04:56:38.740Z,10
2024-04-30T05:11:39.737Z,12.5
2024-04-30T05:26:46.911Z,17.2
2024-04-30T05:41:40.939Z,20.6
2024-04-30T05:56:40.965Z,15.7
2024-04-30T06:11:42.332Z,22.3
2024-04-30T06:26:42.715Z,18.8
2024-04-30T06:41:43.738Z,17.1
2024-04-30T06:56:43.325Z,24.1
2024-04-30T07:11:44.076Z,30.2
2024-04-30T07:26:44.112Z,13.4
2024-04-30T07:41:45.881Z,27.5
2024-04-30T07:56:45.515Z,18.8
2024-04-30T08:11:47.470Z,28.8
2024-04-30T08:26:48.363Z,24.3
2024-04-30T08:41:50.961Z,22.1
2024-04-30T08:56:48.205Z,16
2024-04-30T09:11:49.858Z,12.3
2024-04-30T09:26:50.356Z,12.5
2024-04-30T09:41:52.055Z,12.2
2024-04-30T09:56:51.644Z,13.9
2024-04-30T10:11:52.061Z,14.5
2024-04-30T10:26:53.021Z,14.5
2024-04-30T10:41:53.679Z,13
2024-04-30T10:56:54.017Z,11.2
2024-04-30T11:11:55.297Z,11.1
2024-04-30T11:26:55.387Z,12.8
2024-04-30T11:42:13.053Z,18.1
2024-04-30T11:56:57.344Z,15.4
2024-04-30T12:11:57.055Z,17.9
2024-04-30T12:26:59.530Z,15.9
2024-04-30T12:41:58.790Z,14.5
2024-04-30T12:57:00.010Z,15.2
2024-04-30T13:11:59.683Z,13.6
2024-04-30T13:27:01.045Z,16.9
2024-04-30T13:42:01.686Z,16.6
2024-04-30T13:57:01.760Z,27
2024-04-30T14:12:03.287Z,27.4
2024-04-30T14:27:05.358Z,20.8
2024-04-30T14:42:05.155Z,42.2
2024-04-30T14:57:05.701Z,20.4
2024-04-30T15:12:06.063Z,21.5
2024-04-30T15:27:08.005Z,22.9
2024-04-30T15:42:12.368Z,22.4
2024-04-30T15:57:11.485Z,24
2024-04-30T16:12:08.765Z,26.9
2024-04-30T16:27:08.724Z,17.5
2024-04-30T16:42:12.586Z,22.3
2024-04-30T16:57:11.628Z,17
2024-04-30T17:12:11.736Z,23.1
2024-04-30T17:27:11.739Z,23
2024-04-30T17:42:11.868Z,13.3
2024-04-30T17:57:13.955Z,22.4
2024-04-30T18:12:13.732Z,23.8
2024-04-30T18:27:14.953Z,23.5
2024-04-30T18:42:15.207Z,32.9
2024-04-30T18:57:23.472Z,20.2
2024-04-30T19:27:32.763Z,22.2
2024-04-30T19:42:59.187Z,23
2024-04-30T19:57:28.150Z,19.6
2024-04-30T20:12:19.059Z,16.9
2024-04-30T20:27:19.905Z,31.5
2024-04-30T20:42:20.246Z,23.1
2024-04-30T20:57:21.194Z,18.9
2024-04-30T21:12:21.900Z,17.5
2024-04-30T21:27:27.497Z,17
2024-04-30T21:42:22.426Z,18.5
2024-04-30T21:57:23.734Z,20.8
2024-04-30T22:00:39.088Z,19.3
2024-04-30T22:15:36.836Z,27.8
2024-04-30T22:30:37.224Z,24.5
2024-04-30T22:45:40.662Z,19.5
2024-04-30T23:15:45.671Z,17.8
2024-04-30T23:30:51.225Z,18.5
2024-04-30T23:45:54.809Z,20.2
